createdAt,value
2023-04-04T00:01:58.844Z,2.30
2023-04-04T00:04:44.458Z,2.20
2023-04-04T00:07:29.909Z,2.40
2023-04-04T00:10:16.066Z,2.20
2023-04-04T00:13:01.408Z,2.40
2023-04-04T00:15:46.973Z,2.30
2023-04-04T00:18:32.705Z,2.20
2023-04-04T00:21:18.426Z,2.20
2023-04-04T00:24:03.823Z,2.10
2023-04-04T00:26:49.228Z,2.10
2023-04-04T00:29:34.780Z,2.00
2023-04-04T00:32:20.633Z,1.90
2023-04-04T00:35:06.723Z,3.00
2023-04-04T00:37:52.505Z,1.90
2023-04-04T00:40:49.386Z,2.00
2023-04-04T00:43:35.771Z,2.00
2023-04-04T00:46:21.884Z,2.00
2023-04-04T00:49:07.904Z,1.90
2023-04-04T00:51:54.509Z,1.90
2023-04-04T00:54:39.947Z,2.60
2023-04-04T00:57:27.766Z,1.80
2023-04-04T01:00:15.400Z,1.90
2023-04-04T01:03:01.580Z,1.80
2023-04-04T01:05:47.477Z,1.80
2023-04-04T01:08:34.349Z,1.80
2023-04-04T01:11:20.098Z,1.80
2023-04-04T01:14:05.600Z,1.80
2023-04-04T01:16:51.666Z,3.10
2023-04-04T01:19:53.948Z,1.90
2023-04-04T01:22:40.843Z,1.70
2023-04-04T01:25:32.295Z,1.80
2023-04-04T01:28:17.964Z,1.70
2023-04-04T01:31:07.369Z,1.60
2023-04-04T01:34:00.998Z,1.70
2023-04-04T01:37:00.782Z,1.60
2023-04-04T01:39:57.215Z,1.60
2023-04-04T01:42:44.808Z,1.60
2023-04-04T01:45:30.782Z,1.60
2023-04-04T01:48:16.846Z,1.50
2023-04-04T01:51:02.853Z,1.60
2023-04-04T01:53:48.436Z,1.50
2023-04-04T01:56:34.510Z,1.40
2023-04-04T01:59:20.192Z,1.40
2023-04-04T02:02:05.866Z,1.40
2023-04-04T02:04:51.171Z,1.40
2023-04-04T02:07:37.361Z,2.70
2023-04-04T02:10:22.843Z,1.50
2023-04-04T02:13:08.329Z,1.30
2023-04-04T02:15:53.808Z,1.30
2023-04-04T02:18:39.245Z,1.20
2023-04-04T02:21:26.630Z,1.30
2023-04-04T02:24:11.903Z,1.00
2023-04-04T02:26:57.961Z,1.10
2023-04-04T02:29:43.318Z,1.10
2023-04-04T02:32:29.062Z,1.30
2023-04-04T02:35:14.983Z,1.10
2023-04-04T02:38:00.767Z,1.80
2023-04-04T02:40:46.691Z,2.30
2023-04-04T02:43:32.346Z,0.90
2023-04-04T02:46:21.623Z,1.10
2023-04-04T02:49:08.016Z,1.00
2023-04-04T02:51:54.912Z,1.10
2023-04-04T02:54:40.176Z,1.00
2023-04-04T02:57:25.970Z,1.00
2023-04-04T03:00:12.296Z,0.90
2023-04-04T03:02:58.683Z,1.00
2023-04-04T03:05:44.531Z,0.90
2023-04-04T03:08:30.622Z,0.80
2023-04-04T03:11:21.394Z,0.80
2023-04-04T03:14:07.675Z,0.90
2023-04-04T03:16:53.965Z,0.80
2023-04-04T03:19:40.634Z,0.70
2023-04-04T03:22:26.356Z,0.70
2023-04-04T03:25:12.135Z,0.70
2023-04-04T03:27:57.659Z,0.70
2023-04-04T03:30:43.417Z,0.60
2023-04-04T03:33:28.998Z,2.60
2023-04-04T03:36:14.673Z,0.70
2023-04-04T03:39:00.189Z,0.70
2023-04-04T03:41:45.844Z,0.60
2023-04-04T03:44:31.597Z,0.60
2023-04-04T03:47:17.050Z,0.50
2023-04-04T03:50:02.572Z,1.90
2023-04-04T03:52:48.268Z,0.60
2023-04-04T03:55:34.304Z,0.50
2023-04-04T03:58:19.809Z,0.60
2023-04-04T04:01:05.481Z,0.60
2023-04-04T04:03:51.124Z,0.60
2023-04-04T04:06:37.393Z,0.50
2023-04-04T04:09:23.004Z,0.60
2023-04-04T04:12:09.080Z,0.50
2023-04-04T04:14:54.928Z,0.50
2023-04-04T04:17:41.277Z,0.50
2023-04-04T04:20:27.169Z,0.40
2023-04-04T04:23:12.747Z,0.40
2023-04-04T04:25:58.512Z,0.20
2023-04-04T04:28:43.944Z,0.20
2023-04-04T04:31:29.136Z,0.20
2023-04-04T04:34:15.323Z,0.20
2023-04-04T04:37:00.507Z,0.20
2023-04-04T04:39:46.360Z,0.20
2023-04-04T04:42:32.257Z,0.20
2023-04-04T04:45:17.830Z,0.20
2023-04-04T04:48:03.720Z,0.10
2023-04-04T04:50:49.197Z,0.10
2023-04-04T04:53:34.747Z,0.20
2023-04-04T04:56:20.345Z,-0.10
2023-04-04T04:59:07.548Z,-0.10
2023-04-04T05:01:53.068Z,-0.10
2023-04-04T05:04:38.478Z,-0.20
2023-04-04T05:07:24.250Z,-0.10
2023-04-04T05:10:10.257Z,0.00
2023-04-04T05:12:56.110Z,-0.20
2023-04-04T05:15:42.005Z,0.50
2023-04-04T05:18:27.601Z,-0.10
2023-04-04T05:21:13.428Z,-0.20
2023-04-04T05:23:59.990Z,-0.10
2023-04-04T05:26:45.597Z,-0.10
2023-04-04T05:29:31.097Z,-0.20
2023-04-04T05:32:16.566Z,-0.10
2023-04-04T05:35:02.160Z,-0.20
2023-04-04T05:37:47.770Z,-0.10
2023-04-04T05:40:33.437Z,-0.10
2023-04-04T05:43:18.704Z,-0.10
2023-04-04T05:46:04.353Z,-0.20
2023-04-04T05:48:50.588Z,-0.10
2023-04-04T05:51:36.586Z,-0.20
2023-04-04T05:54:22.728Z,0.00
2023-04-04T05:57:08.704Z,0.00
2023-04-04T05:59:54.687Z,0.00
2023-04-04T06:02:40.461Z,0.10
2023-04-04T06:05:25.913Z,0.20
2023-04-04T06:08:11.615Z,0.10
2023-04-04T06:10:56.925Z,0.10
2023-04-04T06:13:42.435Z,2.10
2023-04-04T06:16:28.145Z,0.40
2023-04-04T06:19:13.474Z,0.40
2023-04-04T06:21:59.149Z,0.50
2023-04-04T06:24:44.601Z,1.40
2023-04-04T06:27:30.212Z,0.60
2023-04-04T06:30:17.125Z,0.80
2023-04-04T06:33:02.553Z,1.40
2023-04-04T06:35:48.292Z,0.90
2023-04-04T06:38:34.252Z,2.30
2023-04-04T06:41:19.816Z,1.00
2023-04-04T06:44:05.105Z,1.10
2023-04-04T06:46:51.757Z,1.20
2023-04-04T06:49:37.515Z,1.90
2023-04-04T06:52:23.574Z,1.30
2023-04-04T06:55:09.158Z,1.30
2023-04-04T06:57:55.171Z,1.40
2023-04-04T07:00:41.371Z,1.60
2023-04-04T07:03:27.385Z,1.80
2023-04-04T07:06:12.911Z,1.90
2023-04-04T07:08:58.409Z,1.90
2023-04-04T07:11:43.811Z,2.00
2023-04-04T07:14:29.441Z,2.00
2023-04-04T07:17:24.154Z,2.30
2023-04-04T07:20:11.493Z,2.40
2023-04-04T07:22:57.064Z,2.50
2023-04-04T07:25:43.948Z,2.80
2023-04-04T07:28:29.737Z,2.80
2023-04-04T07:31:15.055Z,3.90
2023-04-04T07:34:00.779Z,2.80
2023-04-04T07:36:46.178Z,3.00
2023-04-04T07:39:32.008Z,3.00
2023-04-04T07:42:23.187Z,3.10
2023-04-04T07:45:09.262Z,3.00
2023-04-04T07:47:54.962Z,3.40
2023-04-04T07:50:40.329Z,3.10
2023-04-04T07:53:26.366Z,3.40
2023-04-04T07:56:11.693Z,3.50
2023-04-04T07:58:57.263Z,3.40
2023-04-04T08:01:45.086Z,3.40
2023-04-04T08:04:31.515Z,3.50
2023-04-04T08:07:17.024Z,3.70
2023-04-04T08:10:03.027Z,3.70
2023-04-04T08:12:49.167Z,3.90
2023-04-04T08:15:34.716Z,3.90
2023-04-04T08:18:20.335Z,4.70
2023-04-04T08:21:06.141Z,4.10
2023-04-04T08:23:51.763Z,3.80
2023-04-04T08:26:37.171Z,4.00
2023-04-04T08:29:23.145Z,4.70
2023-04-04T08:32:09.277Z,5.30
2023-04-04T08:34:54.551Z,4.40
2023-04-04T08:37:45.099Z,6.30
2023-04-04T08:40:32.758Z,5.40
2023-04-04T08:43:21.093Z,4.70
2023-04-04T08:46:11.372Z,4.80
2023-04-04T08:48:58.763Z,6.00
2023-04-04T08:51:45.989Z,5.30
2023-04-04T08:54:34.214Z,5.30
2023-04-04T08:57:20.033Z,5.10
2023-04-04T09:00:07.647Z,5.10
2023-04-04T09:02:59.552Z,5.40
2023-04-04T09:05:45.786Z,5.80
2023-04-04T09:08:31.648Z,5.40
2023-04-04T09:11:19.385Z,6.10
2023-04-04T09:14:05.071Z,7.30
2023-04-04T09:16:50.909Z,7.30
2023-04-04T09:19:37.566Z,6.30
2023-04-04T09:22:23.025Z,6.40
2023-04-04T09:25:08.873Z,6.70
2023-04-04T09:27:54.341Z,7.00
2023-04-04T09:30:39.801Z,6.80
2023-04-04T09:33:26.182Z,6.80
2023-04-04T09:36:13.322Z,7.50
2023-04-04T09:38:59.050Z,7.40
2023-04-04T09:41:47.519Z,7.60
2023-04-04T09:44:36.936Z,7.80
2023-04-04T09:50:23.895Z,7.70
2023-04-04T09:53:19.512Z,7.60
2023-04-04T09:56:06.685Z,8.00
2023-04-04T09:59:03.423Z,8.40
2023-04-04T10:01:52.053Z,8.70
2023-04-04T10:04:38.293Z,8.40
2023-04-04T10:07:31.041Z,8.60
2023-04-04T10:10:16.479Z,9.40
2023-04-04T10:13:02.628Z,9.20
2023-04-04T10:15:48.328Z,9.30
2023-04-04T10:18:35.554Z,10.80
2023-04-04T10:21:23.094Z,8.90
2023-04-04T10:24:10.215Z,8.50
2023-04-04T10:26:56.165Z,9.80
2023-04-04T10:29:41.517Z,8.90
2023-04-04T10:32:41.952Z,8.60
2023-04-04T10:35:29.182Z,9.00
2023-04-04T10:38:16.514Z,9.50
2023-04-04T10:41:03.090Z,10.00
2023-04-04T10:43:51.305Z,10.70
2023-04-04T10:46:41.643Z,10.60
2023-04-04T10:49:29.747Z,10.50
2023-04-04T10:52:20.907Z,11.70
2023-04-04T10:55:08.397Z,11.00
2023-04-04T10:57:55.425Z,11.00
2023-04-04T11:00:52.412Z,10.90
2023-04-04T11:04:21.472Z,11.00
2023-04-04T11:07:10.776Z,11.00
2023-04-04T11:09:57.028Z,10.30
2023-04-04T11:12:47.767Z,11.00
2023-04-04T11:15:48.092Z,11.60
2023-04-04T11:18:42.274Z,11.60
2023-04-04T11:21:32.486Z,11.40
2023-04-04T11:24:18.318Z,10.30
2023-04-04T11:27:07.973Z,10.90
2023-04-04T11:29:53.978Z,9.80
2023-04-04T11:32:50.109Z,10.20
2023-04-04T11:35:40.828Z,10.20
2023-04-04T11:38:27.360Z,10.30
2023-04-04T11:41:14.847Z,10.30
2023-04-04T11:44:09.038Z,10.30
2023-04-04T11:47:10.790Z,11.30
2023-04-04T11:49:57.083Z,10.90
2023-04-04T11:52:45.532Z,10.40
2023-04-04T11:55:32.139Z,12.40
2023-04-04T11:58:18.191Z,11.10
2023-04-04T12:01:03.727Z,10.90
2023-04-04T12:03:49.190Z,11.60
2023-04-04T12:06:37.495Z,11.80
2023-04-04T12:09:25.966Z,11.40
2023-04-04T12:12:19.025Z,11.50
2023-04-04T12:15:16.632Z,12.20
2023-04-04T12:18:07.988Z,12.30
2023-04-04T12:20:54.298Z,13.20
2023-04-04T12:23:40.078Z,12.50
2023-04-04T12:26:29.767Z,12.50
2023-04-04T12:29:17.233Z,13.00
2023-04-04T12:32:03.875Z,14.60
2023-04-04T12:34:50.787Z,14.40
2023-04-04T12:37:37.104Z,13.50
2023-04-04T12:40:23.361Z,13.40
2023-04-04T12:43:09.514Z,13.40
2023-04-04T12:45:59.454Z,13.40
2023-04-04T12:48:45.722Z,14.20
2023-04-04T12:51:35.090Z,13.30
2023-04-04T12:54:29.151Z,13.20
2023-04-04T12:57:22.525Z,13.10
2023-04-04T13:00:09.528Z,13.40
2023-04-04T13:02:55.536Z,13.40
2023-04-04T13:05:43.385Z,15.80
2023-04-04T13:08:29.024Z,13.90
2023-04-04T13:11:14.871Z,13.20
2023-04-04T13:14:04.099Z,12.80
2023-04-04T13:17:03.487Z,13.60
2023-04-04T13:19:48.750Z,13.10
2023-04-04T13:22:35.840Z,14.20
2023-04-04T13:25:21.490Z,13.90
2023-04-04T13:28:07.009Z,13.80
2023-04-04T13:30:53.473Z,13.50
2023-04-04T13:33:40.436Z,13.30
2023-04-04T13:36:28.383Z,13.10
2023-04-04T13:39:14.059Z,13.30
2023-04-04T13:41:59.680Z,13.00
2023-04-04T13:44:45.146Z,13.80
2023-04-04T13:47:30.684Z,13.90
2023-04-04T13:50:17.004Z,13.60
2023-04-04T13:53:02.449Z,14.00
2023-04-04T13:58:36.672Z,14.20
2023-04-04T14:01:23.272Z,14.30
2023-04-04T14:04:22.897Z,14.20
2023-04-04T14:07:09.936Z,14.40
2023-04-04T14:09:55.482Z,13.90
2023-04-04T14:12:40.860Z,13.80
2023-04-04T14:15:26.442Z,14.10
2023-04-04T14:18:12.609Z,14.20
2023-04-04T14:20:58.431Z,14.10
2023-04-04T14:23:43.890Z,14.20
2023-04-04T14:26:29.244Z,13.80
2023-04-04T14:29:14.948Z,13.70
2023-04-04T14:32:00.587Z,16.30
2023-04-04T14:34:46.075Z,14.00
2023-04-04T14:37:31.396Z,13.60
2023-04-04T14:40:16.841Z,13.80
2023-04-04T14:43:02.066Z,13.80
2023-04-04T14:45:47.578Z,13.90
2023-04-04T14:48:33.395Z,13.90
2023-04-04T14:51:20.019Z,13.40
2023-04-04T14:54:05.675Z,13.20
2023-04-04T14:56:51.311Z,13.40
2023-04-04T14:59:37.087Z,13.00
2023-04-04T15:02:22.792Z,13.00
2023-04-04T15:05:08.693Z,14.60
2023-04-04T15:07:54.241Z,13.40
2023-04-04T15:10:40.425Z,14.70
2023-04-04T15:13:26.142Z,13.10
2023-04-04T15:16:11.479Z,13.80
2023-04-04T15:18:56.886Z,12.90
2023-04-04T15:21:42.378Z,13.60
2023-04-04T15:24:27.731Z,13.50
2023-04-04T15:27:13.710Z,13.40
2023-04-04T15:29:59.743Z,13.20
2023-04-04T15:32:45.377Z,12.70
2023-04-04T15:35:30.827Z,12.20
2023-04-04T15:38:16.381Z,12.40
2023-04-04T15:41:01.885Z,13.50
2023-04-04T15:43:47.291Z,14.20
2023-04-04T15:46:32.650Z,13.10
2023-04-04T15:49:17.908Z,13.20
2023-04-04T15:52:03.942Z,13.60
2023-04-04T15:54:49.249Z,12.60
2023-04-04T15:57:34.899Z,11.80
2023-04-04T16:00:20.805Z,11.60
2023-04-04T16:03:06.586Z,11.40
2023-04-04T16:05:52.270Z,11.00
2023-04-04T16:08:37.875Z,11.40
2023-04-04T16:11:23.278Z,10.60
2023-04-04T16:14:13.306Z,11.00
2023-04-04T16:16:59.548Z,10.00
2023-04-04T16:19:45.052Z,9.90
2023-04-04T16:22:30.769Z,9.70
2023-04-04T16:25:16.286Z,9.90
2023-04-04T16:28:01.679Z,9.80
2023-04-04T16:30:47.540Z,9.50
2023-04-04T16:33:33.186Z,10.70
2023-04-04T16:36:18.814Z,9.20
2023-04-04T16:39:04.246Z,9.10
2023-04-04T16:41:49.550Z,9.10
2023-04-04T16:44:35.169Z,9.30
2023-04-04T16:47:21.042Z,10.10
2023-04-04T16:50:07.301Z,8.60
2023-04-04T16:52:52.628Z,8.70
2023-04-04T16:55:38.214Z,8.70
2023-04-04T16:58:23.930Z,9.50
2023-04-04T17:01:13.375Z,8.50
2023-04-04T17:03:59.329Z,8.20
2023-04-04T17:06:46.107Z,7.90
2023-04-04T17:09:31.688Z,7.80
2023-04-04T17:12:17.121Z,7.80
2023-04-04T17:15:04.046Z,8.10
2023-04-04T17:17:49.620Z,7.70
2023-04-04T17:20:35.227Z,7.90
2023-04-04T17:23:20.556Z,7.50
2023-04-04T17:26:06.309Z,7.40
2023-04-04T17:28:52.083Z,7.40
2023-04-04T17:31:39.303Z,7.40
2023-04-04T17:34:25.120Z,7.00
2023-04-04T17:37:11.641Z,6.90
2023-04-04T17:39:59.221Z,8.00
2023-04-04T17:42:44.648Z,6.80
2023-04-04T17:45:29.902Z,6.60
2023-04-04T17:48:16.524Z,6.60
2023-04-04T17:51:02.842Z,7.30
2023-04-04T17:53:48.430Z,6.60
2023-04-04T17:56:34.265Z,6.50
2023-04-04T17:59:19.727Z,6.50
2023-04-04T18:02:05.905Z,6.40
2023-04-04T18:04:52.021Z,6.30
2023-04-04T18:07:37.449Z,6.30
2023-04-04T18:10:22.942Z,6.40
2023-04-04T18:13:08.530Z,6.90
2023-04-04T18:15:53.940Z,6.10
2023-04-04T18:18:40.657Z,6.60
2023-04-04T18:21:26.774Z,5.90
2023-04-04T18:24:12.861Z,5.80
2023-04-04T18:26:58.608Z,5.80
2023-04-04T18:29:44.195Z,5.80
2023-04-04T18:32:30.752Z,5.80
2023-04-04T18:35:16.587Z,5.80
2023-04-04T18:38:02.162Z,5.80
2023-04-04T18:40:47.721Z,5.60
2023-04-04T18:43:33.103Z,5.60
2023-04-04T18:46:18.773Z,5.50
2023-04-04T18:49:04.651Z,5.40
2023-04-04T18:51:49.841Z,5.40
2023-04-04T18:54:35.509Z,5.60
2023-04-04T18:57:21.113Z,5.40
2023-04-04T19:00:08.271Z,5.40
2023-04-04T19:02:54.512Z,5.40
2023-04-04T19:05:40.668Z,5.50
2023-04-04T19:08:26.831Z,5.50
2023-04-04T19:11:12.369Z,5.50
2023-04-04T19:13:57.788Z,5.40
2023-04-04T19:16:43.208Z,5.90
2023-04-04T19:19:29.121Z,5.20
2023-04-04T19:22:14.496Z,5.20
2023-04-04T19:24:59.886Z,5.30
2023-04-04T19:27:45.573Z,5.00
2023-04-04T19:30:44.895Z,5.10
2023-04-04T19:33:33.227Z,5.00
2023-04-04T19:36:19.610Z,5.90
2023-04-04T19:39:05.622Z,4.90
2023-04-04T19:41:51.289Z,4.90
2023-04-04T19:44:39.365Z,4.80
2023-04-04T19:47:24.907Z,4.80
2023-04-04T19:50:38.077Z,4.70
2023-04-04T19:53:28.003Z,4.70
2023-04-04T19:56:16.608Z,4.70
2023-04-04T19:59:06.163Z,4.50
2023-04-04T20:02:00.162Z,4.50
2023-04-04T20:04:47.215Z,4.50
2023-04-04T20:07:32.804Z,4.40
2023-04-04T20:10:36.684Z,4.40
2023-04-04T20:13:22.561Z,4.30
2023-04-04T20:16:10.241Z,4.20
2023-04-04T20:18:59.053Z,4.20
2023-04-04T20:21:44.592Z,4.10
2023-04-04T20:24:30.260Z,4.10
2023-04-04T20:27:23.805Z,4.10
2023-04-04T20:30:11.755Z,4.10
2023-04-04T20:32:57.191Z,4.00
2023-04-04T20:35:42.541Z,4.00
2023-04-04T20:38:28.298Z,4.00
2023-04-04T20:41:22.201Z,3.90
2023-04-04T20:44:18.965Z,3.90
2023-04-04T20:47:07.784Z,3.90
2023-04-04T20:49:53.403Z,5.10
2023-04-04T20:52:38.920Z,3.70
2023-04-04T20:55:29.494Z,3.70
2023-04-04T20:58:30.148Z,3.80
2023-04-04T21:01:15.750Z,3.80
2023-04-04T21:04:01.133Z,3.70
2023-04-04T21:06:46.667Z,3.70
2023-04-04T21:09:32.226Z,3.70
2023-04-04T21:12:17.996Z,3.70
2023-04-04T21:15:09.148Z,3.70
2023-04-04T21:17:55.820Z,3.60
2023-04-04T21:20:47.712Z,3.60
2023-04-04T21:23:34.217Z,5.20
2023-04-04T21:26:32.378Z,3.60
2023-04-04T21:29:21.996Z,3.60
2023-04-04T21:32:08.508Z,3.50
2023-04-04T21:34:53.793Z,3.50
2023-04-04T21:37:39.498Z,3.50
2023-04-04T21:40:25.095Z,3.50
2023-04-04T21:43:10.830Z,3.50
2023-04-04T21:45:56.455Z,3.40
2023-04-04T21:48:42.404Z,3.40
2023-04-04T21:51:28.480Z,3.40
2023-04-04T21:54:14.761Z,3.30
2023-04-04T21:56:59.980Z,3.20
2023-04-04T21:59:45.484Z,3.30
2023-04-04T22:02:31.016Z,3.20
2023-04-04T22:05:18.164Z,3.20
2023-04-04T22:08:05.430Z,3.20
2023-04-04T22:10:52.380Z,3.10
2023-04-04T22:13:43.101Z,3.10
2023-04-04T22:16:30.516Z,4.20
2023-04-04T22:19:15.971Z,3.10
2023-04-04T22:22:01.304Z,3.10
2023-04-04T22:24:50.973Z,3.80
2023-04-04T22:27:39.914Z,3.10
2023-04-04T22:30:26.842Z,4.50
2023-04-04T22:33:12.119Z,2.90
2023-04-04T22:35:59.245Z,3.00
2023-04-04T22:38:44.879Z,2.90
2023-04-04T22:41:30.264Z,2.70
2023-04-04T22:44:18.005Z,2.80
2023-04-04T22:47:06.272Z,2.70
2023-04-04T22:49:52.015Z,2.70
2023-04-04T22:52:43.090Z,2.70
2023-04-04T22:55:28.909Z,2.60
2023-04-04T22:58:14.226Z,2.60
2023-04-04T23:00:59.506Z,2.60
2023-04-04T23:03:45.498Z,2.60
2023-04-04T23:06:31.441Z,2.50
2023-04-04T23:09:16.854Z,3.40
2023-04-04T23:12:02.507Z,2.50
2023-04-04T23:14:48.040Z,2.60
2023-04-04T23:17:34.569Z,2.50
2023-04-04T23:20:20.140Z,2.40
2023-04-04T23:23:05.733Z,2.50
2023-04-04T23:25:54.001Z,2.60
2023-04-04T23:28:39.491Z,2.90
2023-04-04T23:31:28.378Z,2.40
2023-04-04T23:34:14.114Z,2.80
2023-04-04T23:36:59.851Z,2.50
2023-04-04T23:39:45.625Z,2.50
2023-04-04T23:42:31.396Z,2.50
2023-04-04T23:45:17.107Z,2.70
2023-04-04T23:48:02.952Z,2.40
2023-04-04T23:50:50.351Z,2.50
2023-04-04T23:53:35.887Z,2.30
2023-04-04T23:56:21.538Z,2.40
2023-04-04T23:59:07.061Z,2.30
